Time;durP1;ratioP1;P1;durP2;ratioP2;P2;SDS_P1;SDS_P2;PMS_P1;PMS_P2;Temp;Humidity;BMP_temperature;BMP_pressure;BME280_temperature;BME280_humidity;BME280_pressure;Samples;Min_cycle;Max_cycle;Signal;HPM_P1;HPM_P2
2021/11/27 00:00:41;;;;;;;4.75;2.30;;;;;;;6.11;57.67;96696.66;5031377;28;20101;-49
2021/11/27 00:03:09;;;;;;;7.05;3.58;;;;;;;6.11;57.53;96697.44;5034378;28;20021;-48
2021/11/27 00:05:37;;;;;;;6.20;2.85;;;;;;;6.16;57.05;96691.59;5035029;28;20053;-48
2021/11/27 00:08:04;;;;;;;4.22;2.95;;;;;;;6.22;56.88;96682.09;5017302;28;20491;-48
2021/11/27 00:10:31;;;;;;;4.78;2.58;;;;;;;6.23;57.24;96670.66;5034969;28;20026;-49
2021/11/27 00:12:58;;;;;;;4.82;3.25;;;;;;;6.24;56.63;96664.41;5035003;28;20086;-49
2021/11/27 00:15:26;;;;;;;6.32;3.25;;;;;;;6.26;56.33;96667.59;5034940;28;20022;-48
2021/11/27 00:17:52;;;;;;;3.38;2.22;;;;;;;6.27;55.95;96650.97;5017062;28;20382;-49
2021/11/27 00:20:21;;;;;;;7.82;4.80;;;;;;;6.21;55.84;96642.22;5017004;28;20522;-49
2021/11/27 00:22:48;;;;;;;28.45;15.65;;;;;;;6.23;56.34;96661.03;5016979;28;20033;-49
2021/11/27 00:25:14;;;;;;;94.55;54.17;;;;;;;6.20;56.24;96664.09;5034746;28;20036;-49
2021/11/27 00:27:41;;;;;;;25.50;12.77;;;;;;;6.22;55.78;96659.47;5034758;28;20025;-49
2021/11/27 00:30:10;;;;;;;11.68;8.05;;;;;;;6.27;56.08;96653.56;5035246;28;20025;-50
2021/11/27 00:32:37;;;;;;;8.45;5.32;;;;;;;6.32;55.97;96648.50;5054599;28;20064;-49
2021/11/27 00:35:04;;;;;;;9.63;4.57;;;;;;;6.35;55.96;96637.63;5054518;28;20028;-49
2021/11/27 00:37:30;;;;;;;10.10;4.05;;;;;;;6.43;56.61;96634.69;5036482;28;20163;-48
2021/11/27 00:39:56;;;;;;;5.07;3.08;;;;;;;6.43;56.66;96623.47;5054477;28;20112;-50
2021/11/27 00:42:21;;;;;;;4.85;2.92;;;;;;;6.32;56.42;96615.41;5054406;28;20021;-49
2021/11/27 00:44:47;;;;;;;8.45;2.80;;;;;;;6.22;57.47;96619.56;5054389;28;20406;-49
2021/11/27 00:47:13;;;;;;;6.03;2.80;;;;;;;6.11;57.30;96613.31;5054308;28;20070;-48
2021/11/27 00:49:39;;;;;;;5.50;3.22;;;;;;;6.03;57.82;96614.44;5054267;28;20071;-49
2021/11/27 00:52:05;;;;;;;5.22;2.90;;;;;;;5.90;58.60;96614.59;5054231;28;20025;-49
2021/11/27 00:54:31;;;;;;;5.30;2.70;;;;;;;5.77;59.43;96612.97;5054176;28;20029;-49
2021/11/27 00:56:57;;;;;;;4.07;2.53;;;;;;;5.71;59.25;96608.63;5036118;28;20017;-49
2021/11/27 00:59:22;;;;;;;7.95;3.30;;;;;;;5.65;60.26;96604.31;5054149;28;20029;-48
2021/11/27 01:01:48;;;;;;;4.80;2.58;;;;;;;5.60;59.87;96602.38;5036029;28;20028;-49
2021/11/27 01:04:15;;;;;;;3.35;1.92;;;;;;;5.62;60.16;96595.16;5036085;28;20033;-49
2021/11/27 01:06:41;;;;;;;2.45;1.40;;;;;;;5.66;60.07;96577.28;5036084;28;20079;-49
2021/11/27 01:09:12;;;;;;;7.43;2.70;;;;;;;5.70;59.52;96574.03;5053846;28;20025;-49
2021/11/27 01:11:46;;;;;;;5.45;2.53;;;;;;;5.67;59.93;96577.06;5053870;28;20092;-49
2021/11/27 01:14:17;;;;;;;6.15;3.28;;;;;;;5.74;59.76;96562.16;5053534;28;20112;-48
2021/11/27 01:16:47;;;;;;;3.92;2.03;;;;;;;5.84;59.62;96568.63;5053716;28;20025;-48
2021/11/27 01:19:14;;;;;;;8.00;2.63;;;;;;;5.97;59.08;96573.66;5053745;28;20029;-48
2021/11/27 01:21:46;;;;;;;2.80;1.55;;;;;;;6.03;58.72;96559.75;5035859;28;20457;-49
2021/11/27 01:24:15;;;;;;;5.00;2.10;;;;;;;6.06;58.62;96551.50;5053713;28;20111;-49
2021/11/27 01:26:41;;;;;;;11.70;7.53;;;;;;;6.03;58.83;96544.13;5053568;28;20017;-48
2021/11/27 01:29:07;;;;;;;3.30;2.00;;;;;;;6.07;58.33;96537.47;5053599;28;20462;-49
2021/11/27 01:31:36;;;;;;;5.20;1.92;;;;;;;6.15;57.76;96521.50;5053333;28;20053;-49
2021/11/27 01:34:03;;;;;;;4.22;2.35;;;;;;;6.12;57.62;96515.97;5053554;28;20017;-49
2021/11/27 01:36:28;;;;;;;6.78;2.83;;;;;;;6.08;57.87;96517.44;5053330;28;20051;-49
2021/11/27 01:38:54;;;;;;;3.13;2.22;;;;;;;5.94;57.73;96519.44;5053336;28;20025;-48
2021/11/27 01:41:20;;;;;;;4.85;2.75;;;;;;;5.86;58.15;96514.56;5053319;28;20083;-48
2021/11/27 01:43:46;;;;;;;2.40;1.67;;;;;;;5.74;58.82;96509.31;5053274;28;20487;-49
2021/11/27 01:46:12;;;;;;;4.53;2.33;;;;;;;5.68;58.41;96512.81;5035279;28;20024;-49
2021/11/27 01:48:39;;;;;;;14.52;3.90;;;;;;;5.73;58.51;96518.91;5035259;28;20057;-48
2021/11/27 01:51:08;;;;;;;3.08;1.85;;;;;;;5.87;57.74;96505.72;5053071;28;20071;-48
2021/11/27 01:53:40;;;;;;;3.88;2.20;;;;;;;5.87;56.79;96519.50;5053366;28;20076;-49
2021/11/27 01:56:10;;;;;;;4.63;1.85;;;;;;;5.83;57.74;96507.19;5053043;28;20032;-49
2021/11/27 01:58:35;;;;;;;2.47;1.88;;;;;;;5.95;57.32;96492.41;5052957;28;20506;-49
2021/11/27 02:01:07;;;;;;;4.15;2.17;;;;;;;6.06;57.06;96496.81;5052894;28;20029;-48
2021/11/27 02:03:33;;;;;;;2.03;1.65;;;;;;;6.19;55.90;96478.38;5052973;28;20441;-49
2021/11/27 02:05:58;;;;;;;3.67;2.25;;;;;;;6.33;55.76;96483.34;5052774;28;20029;-48
2021/11/27 02:08:25;;;;;;;3.97;2.03;;;;;;;6.51;54.84;96466.81;5052778;28;20033;-49
2021/11/27 02:10:51;;;;;;;2.58;2.10;;;;;;;6.56;55.51;96452.06;5034858;28;20498;-49
2021/11/27 02:13:17;;;;;;;2.75;1.95;;;;;;;6.51;54.95;96466.81;5034756;28;20394;-48
2021/11/27 02:15:43;;;;;;;3.85;2.00;;;;;;;6.43;55.56;96457.50;5034655;28;20116;-48
2021/11/27 02:18:09;;;;;;;4.68;2.30;;;;;;;6.40;56.22;96455.38;5034680;28;20430;-49
2021/11/27 02:20:37;;;;;;;4.95;2.22;;;;;;;6.47;55.90;96450.03;5052557;28;20025;-48
2021/11/27 02:23:04;;;;;;;7.45;2.70;;;;;;;6.44;55.34;96440.88;5052494;28;20483;-49
2021/11/27 02:25:31;;;;;;;6.20;2.92;;;;;;;6.38;55.73;96442.56;5051829;28;20028;-48
2021/11/27 02:27:58;;;;;;;3.90;1.88;;;;;;;6.33;55.70;96445.06;5052453;28;20109;-49
2021/11/27 02:30:25;;;;;;;17.65;8.52;;;;;;;6.39;56.07;96438.16;5052031;28;20057;-48
2021/11/27 02:32:52;;;;;;;52.33;5.63;;;;;;;6.42;55.01;96429.09;5052353;28;20027;-49
2021/11/27 02:35:18;;;;;;;5.18;3.15;;;;;;;6.36;56.07;96431.59;5052242;28;20516;-49
2021/11/27 02:37:44;;;;;;;7.32;2.30;;;;;;;6.27;57.13;96429.56;5052214;28;20025;-48
2021/11/27 02:40:11;;;;;;;5.07;2.45;;;;;;;6.18;59.10;96429.13;5052164;28;20021;-48
2021/11/27 02:42:37;;;;;;;8.25;3.05;;;;;;;6.06;58.97;96433.56;5052186;28;20017;-49
2021/11/27 02:45:05;;;;;;;3.33;2.65;;;;;;;5.87;58.80;96430.22;5034224;28;20025;-49
2021/11/27 02:47:31;;;;;;;6.78;3.03;;;;;;;5.70;60.08;96419.69;5052136;28;20055;-48
2021/11/27 02:49:59;;;;;;;9.90;4.38;;;;;;;5.60;61.09;96436.66;5034154;28;20036;-50
2021/11/27 02:52:26;;;;;;;18.52;6.75;;;;;;;5.54;63.63;96440.13;5051957;28;20032;-47
2021/11/27 02:54:52;;;;;;;22.27;12.85;;;;;;;5.40;63.77;96449.16;5051991;28;20021;-48
2021/11/27 02:57:18;;;;;;;12.52;6.15;;;;;;;5.10;67.07;96477.78;5033986;28;20032;-47
2021/11/27 02:59:44;;;;;;;10.80;4.88;;;;;;;4.79;69.10;96453.56;5033982;28;20056;-47
2021/11/27 03:02:11;;;;;;;9.40;4.53;;;;;;;4.58;69.47;96414.03;5033910;28;20021;-47
2021/11/27 03:04:38;;;;;;;5.25;3.20;;;;;;;4.31;71.21;96436.13;5033957;28;20504;-47
2021/11/27 03:07:04;;;;;;;10.07;5.50;;;;;;;3.99;73.25;96433.63;5051789;28;20111;-49
2021/11/27 03:09:32;;;;;;;195.98;130.98;;;;;;;3.84;73.33;96479.84;5051768;28;20021;-49
2021/11/27 03:11:58;;;;;;;69.13;48.20;;;;;;;3.70;75.25;96463.59;5051680;28;20425;-49
2021/11/27 03:14:27;;;;;;;10.60;7.10;;;;;;;3.67;74.67;96467.41;5051738;28;20032;-48
2021/11/27 03:16:56;;;;;;;9.38;4.72;;;;;;;3.50;75.06;96468.94;5051661;28;20108;-48
2021/11/27 03:19:21;;;;;;;13.85;6.97;;;;;;;3.32;75.07;96467.03;5051707;28;20033;-49
2021/11/27 03:21:48;;;;;;;27.65;19.42;;;;;;;3.27;76.74;96466.91;5051606;28;20036;-48
2021/11/27 03:24:13;;;;;;;6.60;4.75;;;;;;;3.26;76.42;96450.56;5051579;28;20032;-48
2021/11/27 03:26:39;;;;;;;11.43;6.20;;;;;;;3.33;76.60;96446.09;5051577;28;20028;-49
2021/11/27 03:29:05;;;;;;;9.63;5.35;;;;;;;3.32;76.38;96426.38;5051582;28;20017;-49
2021/11/27 03:31:31;;;;;;;13.18;9.40;;;;;;;3.30;76.62;96441.34;5044803;28;20041;-48
2021/11/27 03:33:57;;;;;;;19.20;12.50;;;;;;;3.23;77.12;96458.72;5051508;28;20581;-48
2021/11/27 03:36:24;;;;;;;78.82;61.85;;;;;;;3.22;77.18;96413.09;5053535;28;20472;-49
2021/11/27 03:38:49;;;;;;;9.02;5.72;;;;;;;3.26;76.91;96414.25;5055547;28;20032;-48
2021/11/27 03:41:16;;;;;;;9.35;4.78;;;;;;;3.28;77.41;96414.84;5055496;28;20379;-49
2021/11/27 03:43:43;;;;;;;180.98;127.55;;;;;;;3.35;76.74;96423.34;5037551;28;20025;-51
2021/11/27 03:46:10;;;;;;;22.75;14.82;;;;;;;3.50;76.78;96437.81;5037486;28;20405;-51
2021/11/27 03:48:40;;;;;;;87.38;63.83;;;;;;;3.48;75.57;96375.81;5055447;28;20025;-51
2021/11/27 03:51:09;;;;;;;8.82;6.38;;;;;;;3.51;75.35;96403.91;5055358;28;20108;-52
2021/11/27 03:53:37;;;;;;;15.13;8.63;;;;;;;3.65;75.13;96402.00;5055318;28;20096;-52
2021/11/27 03:56:06;;;;;;;25.98;15.80;;;;;;;3.71;75.21;96395.94;5055324;28;20022;-51
2021/11/27 03:58:32;;;;;;;48.10;31.25;;;;;;;3.81;74.12;96387.69;5055206;28;20021;-52
2021/11/27 04:00:58;;;;;;;152.02;125.07;;;;;;;3.80;74.51;96405.06;5055193;28;20133;-52
2021/11/27 04:03:25;;;;;;;18.63;12.77;;;;;;;3.76;73.72;96398.72;5053790;28;20040;-51
2021/11/27 04:05:55;;;;;;;13.82;5.72;;;;;;;3.70;73.69;96376.22;5037181;28;20025;-51
2021/11/27 04:08:21;;;;;;;13.93;10.38;;;;;;;3.70;74.11;96375.41;5055076;28;20107;-51
2021/11/27 04:10:48;;;;;;;8.30;4.55;;;;;;;3.75;73.98;96378.97;5055001;28;20521;-50
2021/11/27 04:13:15;;;;;;;61.65;50.92;;;;;;;3.90;74.01;96406.34;5054967;28;20036;-51
2021/11/27 04:15:41;;;;;;;16.75;12.55;;;;;;;3.90;73.59;96394.16;5054877;28;20372;-51
2021/11/27 04:18:07;;;;;;;11.93;8.80;;;;;;;4.04;73.64;96366.28;5036906;28;20029;-50
2021/11/27 04:20:33;;;;;;;21.00;14.70;;;;;;;4.18;72.97;96388.50;5036932;28;20078;-50
2021/11/27 04:22:59;;;;;;;25.27;19.90;;;;;;;4.20;72.46;96385.69;5054802;28;20029;-49
2021/11/27 04:25:25;;;;;;;11.70;8.60;;;;;;;4.12;72.50;96366.00;5054771;28;20026;-50
2021/11/27 04:27:51;;;;;;;8.63;5.15;;;;;;;4.11;72.59;96407.78;5036800;28;20025;-50
2021/11/27 04:30:21;;;;;;;9.10;5.20;;;;;;;4.08;72.74;96397.81;5036987;28;20033;-49
2021/11/27 04:32:48;;;;;;;214.68;191.00;;;;;;;4.15;73.21;96411.53;5054421;28;20041;-50
2021/11/27 04:35:15;;;;;;;7.07;4.95;;;;;;;4.37;72.86;96370.34;5054594;28;20029;-50
2021/11/27 04:37:41;;;;;;;8.55;4.40;;;;;;;4.38;72.07;96393.47;5036834;28;20025;-49
2021/11/27 04:40:07;;;;;;;8.88;5.57;;;;;;;4.54;72.36;96412.88;5054513;28;20100;-49
2021/11/27 04:42:34;;;;;;;6.75;4.28;;;;;;;4.68;71.93;96408.31;5054408;28;20025;-50
2021/11/27 04:45:01;;;;;;;6.20;4.18;;;;;;;4.72;72.13;96408.69;5054419;28;20025;-49
2021/11/27 04:47:27;;;;;;;5.45;3.10;;;;;;;4.76;72.35;96421.00;5053622;28;20040;-49
2021/11/27 04:49:53;;;;;;;13.73;9.85;;;;;;;4.82;71.43;96424.53;5054310;28;20028;-48
2021/11/27 04:52:20;;;;;;;14.02;5.90;;;;;;;4.98;71.18;96439.50;5054241;28;20021;-48
2021/11/27 04:54:46;;;;;;;8.23;3.80;;;;;;;5.18;70.76;96420.25;5036296;28;20031;-49
2021/11/27 04:57:12;;;;;;;127.28;106.25;;;;;;;5.21;69.84;96422.41;5036189;28;20498;-49
2021/11/27 04:59:38;;;;;;;45.35;35.83;;;;;;;5.28;68.79;96411.94;5054059;28;20016;-47
2021/11/27 05:02:05;;;;;;;88.40;75.47;;;;;;;5.23;68.54;96412.56;5054079;28;20104;-49
2021/11/27 05:04:31;;;;;;;17.55;11.90;;;;;;;5.32;68.15;96410.47;5036104;28;20491;-48
2021/11/27 05:06:57;;;;;;;80.28;70.45;;;;;;;5.25;67.06;96394.97;5053963;28;20032;-48
2021/11/27 05:09:23;;;;;;;53.15;40.75;;;;;;;5.33;67.24;96427.66;5035982;28;20044;-49
2021/11/27 05:11:49;;;;;;;15.05;10.15;;;;;;;5.41;67.28;96393.50;5053863;28;20063;-48
2021/11/27 05:14:15;;;;;;;6.35;4.40;;;;;;;5.44;66.71;96398.28;5035864;28;20033;-48
2021/11/27 05:16:40;;;;;;;11.98;6.90;;;;;;;5.33;66.61;96386.84;5035786;28;20021;-48
2021/11/27 05:19:07;;;;;;;5.93;3.55;;;;;;;5.24;66.16;96395.97;5035884;28;20098;-48
2021/11/27 05:21:32;;;;;;;14.55;4.53;;;;;;;5.16;65.88;96363.28;5035695;28;20048;-48
2021/11/27 05:23:59;;;;;;;9.57;4.07;;;;;;;5.17;65.96;96403.88;5053700;28;20094;-48
2021/11/27 05:26:25;;;;;;;7.13;4.30;;;;;;;5.20;65.44;96394.84;5054064;28;20075;-48
2021/11/27 05:28:50;;;;;;;76.45;63.70;;;;;;;5.18;66.42;96413.25;5053500;28;20037;-48
2021/11/27 05:31:17;;;;;;;14.00;10.27;;;;;;;5.21;65.43;96412.00;5053221;28;20081;-49
2021/11/27 05:36:13;;;;;;;5.50;3.30;;;;;;;5.25;65.36;96418.38;5053662;28;20049;-48
2021/11/27 05:38:39;;;;;;;7.95;4.90;;;;;;;5.14;65.39;96395.72;5053306;28;20411;-49
2021/11/27 05:41:06;;;;;;;7.45;3.47;;;;;;;5.05;66.61;96391.84;5053270;28;20025;-47
2021/11/27 05:43:33;;;;;;;9.32;4.97;;;;;;;4.99;66.95;96403.94;5053309;28;20044;-48
2021/11/27 05:45:59;;;;;;;10.30;4.50;;;;;;;5.09;65.53;96374.78;5035270;28;20061;-49
2021/11/27 05:48:25;;;;;;;5.03;2.95;;;;;;;5.19;64.93;96352.44;5035216;28;20401;-49
2021/11/27 05:50:51;;;;;;;6.70;3.97;;;;;;;5.28;66.11;96355.50;5053132;28;20024;-49
2021/11/27 05:53:18;;;;;;;4.22;2.50;;;;;;;5.36;65.41;96372.59;5053131;28;20017;-49
2021/11/27 05:55:47;;;;;;;4.45;2.60;;;;;;;5.37;64.77;96374.97;5053006;28;20084;-49
2021/11/27 05:58:14;;;;;;;11.55;2.63;;;;;;;5.32;65.17;96376.66;5052943;28;20017;-49
2021/11/27 06:00:39;;;;;;;2.78;2.10;;;;;;;5.24;65.19;96377.00;5034027;28;20109;-48
2021/11/27 06:03:05;;;;;;;7.82;2.20;;;;;;;5.07;65.43;96366.41;5052929;28;20155;-49
2021/11/27 06:05:31;;;;;;;14.30;8.55;;;;;;;5.07;65.36;96369.84;5034928;28;20036;-48
2021/11/27 06:07:57;;;;;;;11.73;8.60;;;;;;;5.33;64.27;96384.25;5052777;28;20104;-49
2021/11/27 06:10:23;;;;;;;9.75;3.70;;;;;;;5.43;64.10;96373.25;5034903;28;20609;-49
2021/11/27 06:12:49;;;;;;;4.32;2.47;;;;;;;5.54;63.42;96375.09;5052681;28;20104;-49
2021/11/27 06:15:15;;;;;;;6.00;2.63;;;;;;;5.74;62.38;96376.59;5052706;28;20152;-49
2021/11/27 06:17:41;;;;;;;7.18;4.25;;;;;;;5.87;62.37;96376.34;5052605;28;20074;-48
2021/11/27 06:20:07;;;;;;;4.97;3.33;;;;;;;6.07;62.22;96398.66;5052566;28;20571;-48
2021/11/27 06:22:33;;;;;;;3.75;2.03;;;;;;;6.09;61.20;96410.44;5034712;28;20421;-49
2021/11/27 06:24:59;;;;;;;3.72;2.53;;;;;;;6.03;61.13;96406.13;5052573;28;20024;-48
2021/11/27 06:27:25;;;;;;;3.45;2.00;;;;;;;5.94;61.33;96390.06;5034595;28;20029;-49
2021/11/27 06:29:51;;;;;;;4.35;1.85;;;;;;;5.88;61.20;96401.38;5034493;28;20025;-49
2021/11/27 06:32:22;;;;;;;3.22;2.20;;;;;;;5.85;61.45;96388.78;5052158;28;20127;-49
2021/11/27 06:34:49;;;;;;;18.58;14.10;;;;;;;5.86;61.96;96400.81;5052368;28;20104;-49
2021/11/27 06:37:15;;;;;;;4.25;2.65;;;;;;;5.94;61.54;96421.28;5052215;28;20025;-50
2021/11/27 06:39:40;;;;;;;3.45;2.28;;;;;;;5.87;62.79;96422.41;5052270;28;20514;-48
2021/11/27 06:42:07;;;;;;;6.75;2.60;;;;;;;5.80;62.63;96428.53;5052130;28;20035;-49
2021/11/27 06:44:33;;;;;;;6.47;2.90;;;;;;;5.84;61.66;96439.28;5034259;28;20421;-49
2021/11/27 06:46:59;;;;;;;12.23;3.45;;;;;;;5.87;62.00;96440.63;5052079;28;20111;-48
2021/11/27 06:49:25;;;;;;;3.60;2.40;;;;;;;5.99;61.92;96434.44;5052012;28;20111;-49
2021/11/27 06:51:51;;;;;;;5.93;2.33;;;;;;;6.03;61.19;96432.19;5034086;28;20116;-49
2021/11/27 06:54:17;;;;;;;3.60;2.92;;;;;;;6.03;61.66;96428.78;5052011;28;20159;-48
2021/11/27 06:56:42;;;;;;;7.72;3.75;;;;;;;6.19;61.20;96428.88;5051834;28;20107;-48
2021/11/27 06:59:08;;;;;;;7.20;3.92;;;;;;;6.11;60.77;96423.22;5051938;28;20017;-48
2021/11/27 07:01:34;;;;;;;5.03;3.00;;;;;;;6.12;60.52;96454.25;5033984;28;20033;-50
2021/11/27 07:04:00;;;;;;;6.18;2.90;;;;;;;6.05;60.01;96450.97;5033945;28;20079;-49
2021/11/27 07:06:26;;;;;;;5.32;2.95;;;;;;;6.12;60.92;96456.88;5051859;28;20372;-49
2021/11/27 07:08:52;;;;;;;6.57;3.13;;;;;;;6.28;60.35;96436.34;5051802;28;20116;-49
2021/11/27 07:11:17;;;;;;;4.43;2.95;;;;;;;6.16;60.53;96467.63;5033605;28;20029;-49
2021/11/27 07:13:43;;;;;;;5.32;3.20;;;;;;;6.19;59.83;96415.84;5051748;28;20100;-49
2021/11/27 07:16:09;;;;;;;6.00;3.05;;;;;;;6.30;60.10;96462.97;5033811;28;20418;-49
2021/11/27 07:18:35;;;;;;;7.25;3.97;;;;;;;6.34;60.07;96466.72;5033715;28;20025;-49
2021/11/27 07:21:00;;;;;;;15.38;11.45;;;;;;;6.49;58.60;96471.44;5051671;28;20473;-49
2021/11/27 07:23:26;;;;;;;6.03;3.33;;;;;;;6.44;59.01;96466.13;5051651;28;20021;-49
2021/11/27 07:25:52;;;;;;;9.75;4.13;;;;;;;6.43;58.99;96485.38;5051646;28;20025;-50
2021/11/27 07:28:18;;;;;;;18.38;5.60;;;;;;;6.41;58.39;96459.56;5033727;28;20031;-49
2021/11/27 07:30:43;;;;;;;15.38;3.63;;;;;;;6.54;58.89;96476.75;5051244;28;20033;-49
2021/11/27 07:33:09;;;;;;;69.57;61.55;;;;;;;6.72;58.19;96475.81;5051625;28;20021;-48
2021/11/27 07:35:35;;;;;;;6.18;4.55;;;;;;;6.83;58.05;96485.44;5051510;28;20074;-48
2021/11/27 07:38:01;;;;;;;10.07;3.25;;;;;;;6.86;57.87;96486.78;5051379;28;20027;-49
2021/11/27 07:40:27;;;;;;;7.70;3.60;;;;;;;6.79;57.58;96479.88;5051489;28;20399;-49
2021/11/27 07:42:53;;;;;;;6.10;2.53;;;;;;;6.75;58.19;96477.97;5033561;28;20025;-49
2021/11/27 07:45:22;;;;;;;3.20;2.13;;;;;;;6.63;58.99;96483.22;5051394;28;20032;-48
2021/11/27 07:47:48;;;;;;;39.88;32.03;;;;;;;6.62;59.29;96491.25;5051368;28;20123;-49
2021/11/27 07:50:13;;;;;;;11.15;5.90;;;;;;;6.63;59.67;96498.84;5051412;28;20029;-50
2021/11/27 07:52:41;;;;;;;5.30;2.88;;;;;;;6.63;58.78;96488.41;5051370;28;20518;-49
2021/11/27 07:55:07;;;;;;;5.95;2.97;;;;;;;6.67;59.85;96483.56;5051302;28;20036;-49
2021/11/27 07:57:32;;;;;;;765.55;571.30;;;;;;;6.72;58.39;96494.06;5033391;28;20029;-48
2021/11/27 07:59:58;;;;;;;49.53;27.50;;;;;;;6.69;58.62;96494.53;5051295;28;20044;-49
2021/11/27 08:02:24;;;;;;;196.63;138.25;;;;;;;6.69;59.24;96502.34;5051244;28;20028;-49
2021/11/27 08:04:49;;;;;;;63.78;43.72;;;;;;;6.83;59.80;96495.06;5051260;28;20025;-49
2021/11/27 08:07:15;;;;;;;62.58;54.40;;;;;;;6.94;58.83;96495.06;5033337;28;20115;-49
2021/11/27 08:09:41;;;;;;;54.10;37.33;;;;;;;6.94;57.67;96486.41;5033292;28;20410;-48
2021/11/27 08:12:07;;;;;;;8.88;5.13;;;;;;;6.97;57.63;96486.75;5051161;28;20059;-48
2021/11/27 08:14:33;;;;;;;7.25;4.82;;;;;;;6.94;57.74;96487.22;5051201;28;20029;-49
2021/11/27 08:17:01;;;;;;;5.03;3.28;;;;;;;7.00;58.17;96494.13;5051069;28;20469;-49
2021/11/27 08:19:28;;;;;;;6.82;4.75;;;;;;;6.94;57.75;96492.44;5051198;28;20429;-49
2021/11/27 08:21:54;;;;;;;7.45;2.65;;;;;;;7.18;58.45;96505.41;5033221;28;20607;-49
2021/11/27 08:24:21;;;;;;;8.98;5.30;;;;;;;7.39;57.25;96491.72;5054379;28;20021;-49
2021/11/27 08:26:47;;;;;;;4.55;2.72;;;;;;;7.48;57.02;96497.34;5054711;28;20021;-49
2021/11/27 08:29:13;;;;;;;9.80;4.03;;;;;;;7.49;56.66;96480.66;5054690;28;20029;-49
2021/11/27 08:31:39;;;;;;;7.38;3.47;;;;;;;7.46;57.01;96477.72;5027381;28;20048;-48
2021/11/27 08:34:05;;;;;;;5.10;3.22;;;;;;;7.56;57.02;96489.13;5034680;28;20056;-49
2021/11/27 08:36:31;;;;;;;8.20;5.15;;;;;;;7.79;56.20;96461.31;5034683;28;20028;-48
2021/11/27 08:38:57;;;;;;;7.80;2.72;;;;;;;7.97;56.09;96476.75;5034522;28;20017;-48
2021/11/27 08:41:23;;;;;;;4.97;2.50;;;;;;;8.04;55.92;96476.56;5034533;28;20483;-48
2021/11/27 08:43:48;;;;;;;5.13;2.60;;;;;;;8.28;55.27;96473.78;5034521;28;20027;-48
2021/11/27 08:46:15;;;;;;;7.20;3.00;;;;;;;8.66;54.99;96472.25;5034432;28;20029;-49
2021/11/27 08:48:41;;;;;;;5.53;3.30;;;;;;;8.88;54.38;96472.25;5034389;28;20391;-49
2021/11/27 08:51:10;;;;;;;7.38;2.95;;;;;;;9.32;53.34;96478.22;5034369;28;20025;-48
2021/11/27 08:53:36;;;;;;;9.88;5.18;;;;;;;9.48;52.04;96491.47;5034616;28;20030;-49
2021/11/27 08:56:04;;;;;;;3.35;2.30;;;;;;;9.51;51.96;96499.59;5016308;28;20029;-49
2021/11/27 08:58:29;;;;;;;3.97;2.40;;;;;;;9.18;51.57;96503.19;5034205;28;20049;-49
2021/11/27 09:00:55;;;;;;;6.82;3.28;;;;;;;8.80;52.38;96497.00;5034181;28;20077;-49
2021/11/27 09:03:21;;;;;;;6.68;3.58;;;;;;;8.83;53.50;96516.63;5034211;28;20395;-49
2021/11/27 09:05:47;;;;;;;7.40;4.40;;;;;;;8.91;52.32;96506.53;5016156;28;20025;-49
2021/11/27 09:08:13;;;;;;;8.15;3.33;;;;;;;8.66;52.84;96516.69;5034085;28;20030;-48
2021/11/27 09:10:39;;;;;;;3.78;2.15;;;;;;;8.80;53.81;96517.91;5034017;28;20026;-49
2021/11/27 09:13:04;;;;;;;3.80;2.42;;;;;;;10.06;51.24;96523.94;5033831;28;20329;-49
2021/11/27 09:15:30;;;;;;;6.55;2.97;;;;;;;10.78;49.68;96522.59;5033975;28;20484;-49
2021/11/27 09:17:56;;;;;;;7.63;2.45;;;;;;;11.57;48.30;96533.91;5033790;28;20049;-50
2021/11/27 09:20:22;;;;;;;5.20;2.92;;;;;;;12.09;46.50;96520.84;5033830;28;20025;-48
2021/11/27 09:22:47;;;;;;;4.65;2.00;;;;;;;12.21;45.69;96531.09;5016002;28;20040;-49
2021/11/27 09:25:13;;;;;;;5.90;3.20;;;;;;;12.67;45.91;96525.78;5015740;28;20510;-49
2021/11/27 09:27:39;;;;;;;5.63;2.10;;;;;;;13.53;43.28;96526.53;5033625;28;20024;-49
2021/11/27 09:30:08;;;;;;;3.30;1.95;;;;;;;14.04;42.75;96523.53;5033548;28;20029;-50
2021/11/27 09:32:34;;;;;;;9.63;3.53;;;;;;;14.34;41.93;96529.63;5050017;28;20055;-50
2021/11/27 09:35:00;;;;;;;2.78;1.80;;;;;;;14.58;40.23;96530.50;5053304;28;20100;-50
2021/11/27 09:37:26;;;;;;;4.70;1.83;;;;;;;14.58;40.60;96537.63;5053373;28;20051;-50
2021/11/27 09:39:52;;;;;;;6.35;1.85;;;;;;;15.23;40.56;96526.66;5053351;28;20092;-50
2021/11/27 09:42:21;;;;;;;7.47;3.22;;;;;;;15.83;38.31;96538.56;5035348;28;20119;-49
2021/11/27 09:44:50;;;;;;;5.75;2.67;;;;;;;16.32;37.09;96514.22;5053285;28;20017;-49
2021/11/27 09:47:17;;;;;;;2.65;1.95;;;;;;;16.50;36.55;96525.03;5053226;28;20106;-49
2021/11/27 09:49:44;;;;;;;6.95;1.85;;;;;;;16.43;35.98;96520.13;5053193;28;20071;-50
2021/11/27 09:52:11;;;;;;;5.68;1.60;;;;;;;16.69;36.51;96523.13;5035203;28;20041;-50
2021/11/27 09:54:37;;;;;;;2.08;1.17;;;;;;;16.83;35.73;96539.06;5053085;28;20075;-50
2021/11/27 09:57:10;;;;;;;4.45;1.67;;;;;;;16.60;34.93;96526.72;5052879;28;20031;-50
2021/11/27 09:59:40;;;;;;;5.93;1.90;;;;;;;16.26;35.64;96535.75;5053093;28;20493;-50
2021/11/27 10:02:13;;;;;;;2.70;1.45;;;;;;;16.21;35.86;96523.41;5052911;28;20048;-50
2021/11/27 10:04:42;;;;;;;5.25;2.60;;;;;;;16.49;35.12;96537.50;5052911;28;20063;-49
2021/11/27 10:07:13;;;;;;;4.05;1.35;;;;;;;17.04;34.05;96512.94;5052849;28;20450;-50
2021/11/27 10:09:39;;;;;;;5.28;1.77;;;;;;;16.68;33.59;96526.84;5053075;28;20402;-50
2021/11/27 10:12:07;;;;;;;5.15;1.48;;;;;;;16.40;34.40;96541.09;5034822;28;20025;-50
2021/11/27 10:14:39;;;;;;;2.75;1.08;;;;;;;16.90;34.31;96538.66;5052695;28;20100;-49
2021/11/27 10:17:14;;;;;;;3.90;1.30;;;;;;;17.11;33.55;96536.41;5034608;28;20036;-50
2021/11/27 10:19:39;;;;;;;4.18;1.52;;;;;;;17.08;33.98;96550.25;5044856;28;20023;-50
2021/11/27 10:22:05;;;;;;;5.22;1.55;;;;;;;16.82;33.86;96540.16;5052561;28;20103;-50
2021/11/27 10:24:33;;;;;;;5.53;1.30;;;;;;;16.66;32.80;96542.25;5052523;28;20044;-50
2021/11/27 10:27:00;;;;;;;2.13;1.20;;;;;;;16.75;32.61;96551.06;5034542;28;20094;-50
2021/11/27 10:29:33;;;;;;;2.53;1.08;;;;;;;17.00;32.85;96546.41;5052466;28;20020;-50
2021/11/27 10:32:07;;;;;;;6.18;1.30;;;;;;;17.38;32.59;96548.84;5040255;28;20045;-50
2021/11/27 10:34:34;;;;;;;3.78;1.23;;;;;;;16.89;32.84;96545.81;5032322;28;20038;-50
2021/11/27 10:37:00;;;;;;;2.58;1.15;;;;;;;16.32;34.00;96561.88;5014482;28;20022;-50
2021/11/27 10:39:26;;;;;;;3.03;1.20;;;;;;;15.99;35.01;96558.41;5014550;28;20507;-50
2021/11/27 10:42:10;;;;;;;4.30;1.30;;;;;;;15.92;35.44;96555.34;5032277;28;20024;-50
2021/11/27 10:44:37;;;;;;;2.20;1.23;;;;;;;16.67;34.86;96553.63;5032295;28;20029;-50
2021/11/27 10:47:11;;;;;;;1.85;1.00;;;;;;;17.72;33.46;96556.34;5014247;28;20037;-50
2021/11/27 10:49:37;;;;;;;6.03;1.25;;;;;;;18.63;30.87;96551.06;5032190;28;20025;-50
2021/11/27 10:52:09;;;;;;;3.38;1.80;;;;;;;19.43;31.01;96559.84;5032137;28;20557;-50
2021/11/27 10:54:46;;;;;;;5.82;2.53;;;;;;;19.60;31.26;96545.78;5032182;28;20029;-50
2021/11/27 10:57:34;;;;;;;5.13;2.58;;;;;;;19.10;31.59;96546.16;5031980;28;20052;-50
2021/11/27 11:00:26;;;;;;;3.38;2.70;;;;;;;18.40;32.30;96548.44;5032059;28;20035;-50
2021/11/27 11:02:54;;;;;;;4.45;2.03;;;;;;;18.06;33.28;96560.41;5031769;28;20091;-50
2021/11/27 11:05:20;;;;;;;4.88;2.13;;;;;;;17.65;33.31;96555.97;5014068;28;20029;-50
2021/11/27 11:07:57;;;;;;;2.60;1.85;;;;;;;16.83;33.93;96556.81;5031953;28;20025;-50
2021/11/27 11:10:25;;;;;;;6.35;2.88;;;;;;;16.00;35.96;96567.94;5031950;28;20033;-49
2021/11/27 11:13:03;;;;;;;3.50;2.00;;;;;;;15.14;36.81;96563.44;5031799;28;20037;-50
2021/11/27 11:15:32;;;;;;;5.85;2.17;;;;;;;14.38;37.94;96557.03;5014047;28;20180;-50
2021/11/27 11:18:18;;;;;;;4.63;2.10;;;;;;;13.74;39.46;96557.00;5031768;28;20017;-49
2021/11/27 11:20:55;;;;;;;3.58;1.92;;;;;;;13.33;40.24;96564.31;5031846;28;20049;-49
2021/11/27 11:23:24;;;;;;;7.07;2.17;;;;;;;12.92;41.34;96554.69;5031838;28;20026;-50
2021/11/27 11:26:04;;;;;;;10.63;2.15;;;;;;;12.55;42.15;96582.09;5031719;28;20168;-50
2021/11/27 11:28:55;;;;;;;6.35;2.20;;;;;;;12.24;42.46;96575.28;5014071;28;20033;-49
2021/11/27 11:31:24;;;;;;;3.67;1.95;;;;;;;11.93;43.39;96575.25;5031011;28;20056;-50
2021/11/27 11:33:54;;;;;;;3.92;1.73;;;;;;;11.73;43.65;96586.47;5013863;28;20044;-50
2021/11/27 11:36:22;;;;;;;4.50;1.73;;;;;;;11.51;44.38;96576.97;5031678;28;20449;-49
2021/11/27 11:38:56;;;;;;;3.33;1.67;;;;;;;11.45;45.09;96595.59;5031486;28;20120;-50